Anthony, Idaho
Current Conditions -  °F | °C
As of 1:35 AM on Sunday 26 Oct 2014 (Local Time) from KWYS Reporting Station
Overcast Overcast  
Wind Chill:   Ceiling: 5000
Heat Index:   Visibility: 9mi
Dew Point:   Wind: 16mph
Humidity: 87%   Direction: 210°SSW
Pressure: 29.89"   Gusts: 23mph
Location:  44.2887°N, 111.507°W
Report Text: KWYS 260735Z AUTO 21014G20KT 9SM SCT037 BKN050 OVC070 06/04 A2989 RMK AO2 P0001
Loading
Personal Weather Stations






























Interactive Weather Map
Tropical Storm Tracking
New forecast layout! Learn more

10-Day Weather Forecast

Advertisements
Track Severe Weather on mobile